sensor_id;sensor_type;location;lat;lon;timestamp;temperature;humidity
6146;DHT22;3104;50.348;7.620;2022-09-03T00:00:27;18.30;95.00
6146;DHT22;3104;50.348;7.620;2022-09-03T00:03:11;18.20;95.20
6146;DHT22;3104;50.348;7.620;2022-09-03T00:06:01;18.10;95.30
6146;DHT22;3104;50.348;7.620;2022-09-03T00:09:00;18.00;96.00
6146;DHT22;3104;50.348;7.620;2022-09-03T00:11:45;18.00;95.90
6146;DHT22;3104;50.348;7.620;2022-09-03T00:14:27;18.00;96.20
6146;DHT22;3104;50.348;7.620;2022-09-03T00:17:08;18.00;96.10
6146;DHT22;3104;50.348;7.620;2022-09-03T00:19:40;18.00;96.20
6146;DHT22;3104;50.348;7.620;2022-09-03T00:22:14;17.90;96.20
6146;DHT22;3104;50.348;7.620;2022-09-03T00:24:43;17.80;96.60
6146;DHT22;3104;50.348;7.620;2022-09-03T00:27:23;17.80;96.70
6146;DHT22;3104;50.348;7.620;2022-09-03T00:30:00;17.80;96.70
6146;DHT22;3104;50.348;7.620;2022-09-03T00:35:03;17.80;97.10
6146;DHT22;3104;50.348;7.620;2022-09-03T00:37:31;17.70;97.00
6146;DHT22;3104;50.348;7.620;2022-09-03T00:39:57;17.80;97.10
6146;DHT22;3104;50.348;7.620;2022-09-03T00:53:48;17.70;97.30
6146;DHT22;3104;50.348;7.620;2022-09-03T01:04:43;17.60;98.00
6146;DHT22;3104;50.348;7.620;2022-09-03T01:07:37;17.60;97.90
6146;DHT22;3104;50.348;7.620;2022-09-03T01:10:21;17.50;98.10
6146;DHT22;3104;50.348;7.620;2022-09-03T01:13:08;17.50;98.30
6146;DHT22;3104;50.348;7.620;2022-09-03T01:21:24;17.40;98.60
6146;DHT22;3104;50.348;7.620;2022-09-03T01:29:45;17.40;99.00
6146;DHT22;3104;50.348;7.620;2022-09-03T01:32:26;17.40;98.90
6146;DHT22;3104;50.348;7.620;2022-09-03T01:38:15;17.40;99.30
6146;DHT22;3104;50.348;7.620;2022-09-03T01:46:58;17.30;99.70
6146;DHT22;3104;50.348;7.620;2022-09-03T01:49:37;17.40;99.60
6146;DHT22;3104;50.348;7.620;2022-09-03T01:52:12;17.40;99.50
6146;DHT22;3104;50.348;7.620;2022-09-03T01:54:49;17.40;99.70
6146;DHT22;3104;50.348;7.620;2022-09-03T02:00:24;17.40;99.60
6146;DHT22;3104;50.348;7.620;2022-09-03T02:02:51;17.30;99.90
6146;DHT22;3104;50.348;7.620;2022-09-03T02:07:48;17.30;99.90
6146;DHT22;3104;50.348;7.620;2022-09-03T02:13:08;17.30;99.90
6146;DHT22;3104;50.348;7.620;2022-09-03T02:15:38;17.20;99.90
6146;DHT22;3104;50.348;7.620;2022-09-03T02:18:07;17.20;99.90
6146;DHT22;3104;50.348;7.620;2022-09-03T02:20:36;17.30;99.90
6146;DHT22;3104;50.348;7.620;2022-09-03T02:23:02;17.20;99.90
6146;DHT22;3104;50.348;7.620;2022-09-03T02:25:32;17.10;99.90
6146;DHT22;3104;50.348;7.620;2022-09-03T02:28:01;17.10;99.90
6146;DHT22;3104;50.348;7.620;2022-09-03T02:30:27;17.00;99.90
6146;DHT22;3104;50.348;7.620;2022-09-03T02:32:53;17.00;99.90
6146;DHT22;3104;50.348;7.620;2022-09-03T02:35:19;17.00;99.90
6146;DHT22;3104;50.348;7.620;2022-09-03T02:37:44;17.00;99.90
6146;DHT22;3104;50.348;7.620;2022-09-03T02:40:10;17.00;99.90
6146;DHT22;3104;50.348;7.620;2022-09-03T02:42:36;17.00;99.90
6146;DHT22;3104;50.348;7.620;2022-09-03T02:47:33;17.10;99.90
6146;DHT22;3104;50.348;7.620;2022-09-03T02:50:00;17.20;99.90
6146;DHT22;3104;50.348;7.620;2022-09-03T02:52:25;17.20;99.90
6146;DHT22;3104;50.348;7.620;2022-09-03T02:54:51;17.10;99.90
6146;DHT22;3104;50.348;7.620;2022-09-03T02:57:16;17.20;99.90
6146;DHT22;3104;50.348;7.620;2022-09-03T02:59:42;16.90;99.90
6146;DHT22;3104;50.348;7.620;2022-09-03T03:02:11;16.90;99.90
6146;DHT22;3104;50.348;7.620;2022-09-03T03:04:37;16.80;99.90
6146;DHT22;3104;50.348;7.620;2022-09-03T03:07:05;16.90;99.90
6146;DHT22;3104;50.348;7.620;2022-09-03T03:09:30;16.80;99.90
6146;DHT22;3104;50.348;7.620;2022-09-03T03:11:56;16.90;99.90
6146;DHT22;3104;50.348;7.620;2022-09-03T03:14:22;16.90;99.90
6146;DHT22;3104;50.348;7.620;2022-09-03T03:16:49;16.90;99.90
6146;DHT22;3104;50.348;7.620;2022-09-03T03:19:14;17.10;99.90
6146;DHT22;3104;50.348;7.620;2022-09-03T03:21:40;17.00;99.90
6146;DHT22;3104;50.348;7.620;2022-09-03T03:24:06;17.00;99.90
6146;DHT22;3104;50.348;7.620;2022-09-03T03:26:32;17.00;99.90
6146;DHT22;3104;50.348;7.620;2022-09-03T03:29:00;16.60;99.90
6146;DHT22;3104;50.348;7.620;2022-09-03T03:31:29;16.40;99.90
6146;DHT22;3104;50.348;7.620;2022-09-03T03:33:57;16.30;99.90
6146;DHT22;3104;50.348;7.620;2022-09-03T03:36:24;16.30;99.90
6146;DHT22;3104;50.348;7.620;2022-09-03T03:38:54;16.40;99.90
6146;DHT22;3104;50.348;7.620;2022-09-03T03:41:22;16.50;99.90
6146;DHT22;3104;50.348;7.620;2022-09-03T03:43:59;16.50;99.90
6146;DHT22;3104;50.348;7.620;2022-09-03T03:46:35;16.50;99.90
6146;DHT22;3104;50.348;7.620;2022-09-03T03:49:01;16.60;99.90
6146;DHT22;3104;50.348;7.620;2022-09-03T03:51:27;16.50;99.90
6146;DHT22;3104;50.348;7.620;2022-09-03T03:53:55;16.50;99.90
6146;DHT22;3104;50.348;7.620;2022-09-03T03:56:24;16.50;99.90
6146;DHT22;3104;50.348;7.620;2022-09-03T03:58:51;16.50;99.90
6146;DHT22;3104;50.348;7.620;2022-09-03T04:01:23;16.50;99.90
6146;DHT22;3104;50.348;7.620;2022-09-03T04:03:49;16.40;99.90
6146;DHT22;3104;50.348;7.620;2022-09-03T04:06:16;16.40;99.90
6146;DHT22;3104;50.348;7.620;2022-09-03T04:08:44;16.40;99.90
6146;DHT22;3104;50.348;7.620;2022-09-03T04:11:12;16.40;99.90
6146;DHT22;3104;50.348;7.620;2022-09-03T04:13:40;16.30;99.90
6146;DHT22;3104;50.348;7.620;2022-09-03T04:16:14;16.30;99.90
6146;DHT22;3104;50.348;7.620;2022-09-03T04:18:40;16.20;99.90
6146;DHT22;3104;50.348;7.620;2022-09-03T04:21:14;16.00;99.90
6146;DHT22;3104;50.348;7.620;2022-09-03T04:23:42;15.90;99.90
6146;DHT22;3104;50.348;7.620;2022-09-03T04:26:09;15.90;99.90
6146;DHT22;3104;50.348;7.620;2022-09-03T04:28:35;15.90;99.90
6146;DHT22;3104;50.348;7.620;2022-09-03T04:31:06;15.90;99.90
6146;DHT22;3104;50.348;7.620;2022-09-03T04:33:33;15.80;99.90
6146;DHT22;3104;50.348;7.620;2022-09-03T04:36:10;15.80;99.90
6146;DHT22;3104;50.348;7.620;2022-09-03T04:38:39;15.70;99.90
6146;DHT22;3104;50.348;7.620;2022-09-03T04:41:06;15.70;99.90
6146;DHT22;3104;50.348;7.620;2022-09-03T04:43:35;15.70;99.90
6146;DHT22;3104;50.348;7.620;2022-09-03T04:46:03;15.70;99.90
6146;DHT22;3104;50.348;7.620;2022-09-03T04:48:30;15.80;99.90
6146;DHT22;3104;50.348;7.620;2022-09-03T04:51:08;15.90;99.90
6146;DHT22;3104;50.348;7.620;2022-09-03T04:53:38;15.90;99.90
6146;DHT22;3104;50.348;7.620;2022-09-03T04:56:24;15.90;99.90
6146;DHT22;3104;50.348;7.620;2022-09-03T04:58:58;15.90;99.90
6146;DHT22;3104;50.348;7.620;2022-09-03T05:01:26;15.90;99.90
6146;DHT22;3104;50.348;7.620;2022-09-03T05:03:52;15.90;99.90
6146;DHT22;3104;50.348;7.620;2022-09-03T05:06:18;15.90;99.90
6146;DHT22;3104;50.348;7.620;2022-09-03T05:08:48;15.90;99.90
6146;DHT22;3104;50.348;7.620;2022-09-03T05:11:14;15.90;99.90
6146;DHT22;3104;50.348;7.620;2022-09-03T05:13:40;15.90;99.90
6146;DHT22;3104;50.348;7.620;2022-09-03T05:16:08;15.90;99.90
6146;DHT22;3104;50.348;7.620;2022-09-03T05:18:34;15.90;99.90
6146;DHT22;3104;50.348;7.620;2022-09-03T05:21:10;15.90;99.90
6146;DHT22;3104;50.348;7.620;2022-09-03T05:23:41;16.00;99.90
6146;DHT22;3104;50.348;7.620;2022-09-03T05:26:09;16.00;99.90
6146;DHT22;3104;50.348;7.620;2022-09-03T05:28:37;16.20;99.90
6146;DHT22;3104;50.348;7.620;2022-09-03T05:31:06;16.30;99.90
6146;DHT22;3104;50.348;7.620;2022-09-03T05:33:37;16.40;99.90
6146;DHT22;3104;50.348;7.620;2022-09-03T05:36:09;16.50;99.90
6146;DHT22;3104;50.348;7.620;2022-09-03T05:38:35;16.50;99.90
6146;DHT22;3104;50.348;7.620;2022-09-03T05:41:02;16.50;99.90
6146;DHT22;3104;50.348;7.620;2022-09-03T05:43:29;16.50;99.90
6146;DHT22;3104;50.348;7.620;2022-09-03T05:46:12;16.60;99.90
6146;DHT22;3104;50.348;7.620;2022-09-03T05:48:39;16.60;99.90
6146;DHT22;3104;50.348;7.620;2022-09-03T05:53:34;16.60;99.90
6146;DHT22;3104;50.348;7.620;2022-09-03T05:56:02;16.50;99.90
6146;DHT22;3104;50.348;7.620;2022-09-03T05:58:33;16.50;99.90
6146;DHT22;3104;50.348;7.620;2022-09-03T06:00:59;16.40;99.90
6146;DHT22;3104;50.348;7.620;2022-09-03T06:03:25;16.40;99.90
6146;DHT22;3104;50.348;7.620;2022-09-03T06:05:54;16.40;99.90
6146;DHT22;3104;50.348;7.620;2022-09-03T06:08:20;16.40;99.90
6146;DHT22;3104;50.348;7.620;2022-09-03T06:10:46;16.30;99.90
6146;DHT22;3104;50.348;7.620;2022-09-03T06:13:12;16.30;99.90
6146;DHT22;3104;50.348;7.620;2022-09-03T06:15:38;16.30;99.90
6146;DHT22;3104;50.348;7.620;2022-09-03T06:18:04;16.30;99.90
6146;DHT22;3104;50.348;7.620;2022-09-03T06:20:30;16.30;99.90
6146;DHT22;3104;50.348;7.620;2022-09-03T06:22:57;16.30;99.90
6146;DHT22;3104;50.348;7.620;2022-09-03T06:25:22;16.30;99.90
6146;DHT22;3104;50.348;7.620;2022-09-03T06:27:49;16.20;99.90
6146;DHT22;3104;50.348;7.620;2022-09-03T06:30:15;16.30;99.90
6146;DHT22;3104;50.348;7.620;2022-09-03T06:32:47;16.30;99.90
6146;DHT22;3104;50.348;7.620;2022-09-03T06:35:15;16.00;99.90
6146;DHT22;3104;50.348;7.620;2022-09-03T06:37:41;16.00;99.90
6146;DHT22;3104;50.348;7.620;2022-09-03T06:40:08;16.00;99.90
6146;DHT22;3104;50.348;7.620;2022-09-03T06:42:40;16.00;99.90
6146;DHT22;3104;50.348;7.620;2022-09-03T06:45:07;16.00;99.90
6146;DHT22;3104;50.348;7.620;2022-09-03T06:47:33;16.00;99.90
6146;DHT22;3104;50.348;7.620;2022-09-03T06:49:59;16.00;99.90
6146;DHT22;3104;50.348;7.620;2022-09-03T06:52:27;16.10;99.90
6146;DHT22;3104;50.348;7.620;2022-09-03T06:54:52;16.20;99.90
6146;DHT22;3104;50.348;7.620;2022-09-03T06:57:18;16.20;99.90
6146;DHT22;3104;50.348;7.620;2022-09-03T06:59:44;16.20;99.90
6146;DHT22;3104;50.348;7.620;2022-09-03T07:02:09;16.20;99.90
6146;DHT22;3104;50.348;7.620;2022-09-03T07:04:35;16.10;99.90
6146;DHT22;3104;50.348;7.620;2022-09-03T07:07:01;16.10;99.90
6146;DHT22;3104;50.348;7.620;2022-09-03T07:09:27;16.20;99.90
6146;DHT22;3104;50.348;7.620;2022-09-03T07:11:53;16.30;99.90
6146;DHT22;3104;50.348;7.620;2022-09-03T07:14:20;16.30;99.90
6146;DHT22;3104;50.348;7.620;2022-09-03T07:16:47;16.40;99.90
6146;DHT22;3104;50.348;7.620;2022-09-03T07:19:14;16.60;99.90
6146;DHT22;3104;50.348;7.620;2022-09-03T07:21:40;16.60;99.90
6146;DHT22;3104;50.348;7.620;2022-09-03T07:24:07;16.70;99.90
6146;DHT22;3104;50.348;7.620;2022-09-03T07:26:36;16.70;99.90
6146;DHT22;3104;50.348;7.620;2022-09-03T07:29:03;16.70;99.90
6146;DHT22;3104;50.348;7.620;2022-09-03T07:31:32;16.80;99.90
6146;DHT22;3104;50.348;7.620;2022-09-03T07:34:00;16.80;99.90
6146;DHT22;3104;50.348;7.620;2022-09-03T07:36:29;16.70;99.90
6146;DHT22;3104;50.348;7.620;2022-09-03T07:38:56;16.80;99.90
6146;DHT22;3104;50.348;7.620;2022-09-03T07:41:22;16.80;99.90
6146;DHT22;3104;50.348;7.620;2022-09-03T07:43:49;16.80;99.90
6146;DHT22;3104;50.348;7.620;2022-09-03T07:46:17;17.00;99.90
6146;DHT22;3104;50.348;7.620;2022-09-03T07:48:46;17.00;99.90
6146;DHT22;3104;50.348;7.620;2022-09-03T07:51:13;17.00;99.90
6146;DHT22;3104;50.348;7.620;2022-09-03T07:53:39;17.00;99.90
6146;DHT22;3104;50.348;7.620;2022-09-03T07:56:06;17.30;99.90
6146;DHT22;3104;50.348;7.620;2022-09-03T07:58:33;17.50;99.90
6146;DHT22;3104;50.348;7.620;2022-09-03T08:01:07;17.50;99.90
6146;DHT22;3104;50.348;7.620;2022-09-03T08:03:34;17.80;99.90
6146;DHT22;3104;50.348;7.620;2022-09-03T08:06:02;18.00;99.90
6146;DHT22;3104;50.348;7.620;2022-09-03T08:08:28;18.20;99.90
6146;DHT22;3104;50.348;7.620;2022-09-03T08:10:54;18.50;99.90
6146;DHT22;3104;50.348;7.620;2022-09-03T08:13:20;18.50;99.90
6146;DHT22;3104;50.348;7.620;2022-09-03T08:15:53;18.70;99.90
6146;DHT22;3104;50.348;7.620;2022-09-03T08:18:19;18.50;99.90
6146;DHT22;3104;50.348;7.620;2022-09-03T08:20:44;18.70;99.90
6146;DHT22;3104;50.348;7.620;2022-09-03T08:23:11;18.50;99.90
6146;DHT22;3104;50.348;7.620;2022-09-03T08:25:36;18.60;99.90
6146;DHT22;3104;50.348;7.620;2022-09-03T08:28:02;18.50;99.90
6146;DHT22;3104;50.348;7.620;2022-09-03T08:30:28;18.50;99.90
6146;DHT22;3104;50.348;7.620;2022-09-03T08:32:54;18.30;99.90
6146;DHT22;3104;50.348;7.620;2022-09-03T08:35:20;17.90;99.90
6146;DHT22;3104;50.348;7.620;2022-09-03T08:37:47;17.80;99.90
6146;DHT22;3104;50.348;7.620;2022-09-03T08:40:16;17.70;99.90
6146;DHT22;3104;50.348;7.620;2022-09-03T08:43:01;17.70;99.90
6146;DHT22;3104;50.348;7.620;2022-09-03T08:45:31;17.50;99.90
6146;DHT22;3104;50.348;7.620;2022-09-03T08:50:33;17.20;99.90
6146;DHT22;3104;50.348;7.620;2022-09-03T08:56:06;16.70;99.90
6146;DHT22;3104;50.348;7.620;2022-09-03T08:58:34;16.70;99.90
6146;DHT22;3104;50.348;7.620;2022-09-03T09:07:10;16.80;99.90
6146;DHT22;3104;50.348;7.620;2022-09-03T09:12:34;16.70;99.90
6146;DHT22;3104;50.348;7.620;2022-09-03T09:15:10;16.90;99.90
6146;DHT22;3104;50.348;7.620;2022-09-03T09:20:50;17.10;99.90
6146;DHT22;3104;50.348;7.620;2022-09-03T09:23:23;17.20;99.90
6146;DHT22;3104;50.348;7.620;2022-09-03T09:25:52;17.50;99.90
6146;DHT22;3104;50.348;7.620;2022-09-03T09:28:24;17.40;99.90
6146;DHT22;3104;50.348;7.620;2022-09-03T09:30:54;17.30;99.90
6146;DHT22;3104;50.348;7.620;2022-09-03T09:33:21;17.50;99.90
6146;DHT22;3104;50.348;7.620;2022-09-03T09:35:47;17.60;99.90
6146;DHT22;3104;50.348;7.620;2022-09-03T09:38:13;17.40;99.90
6146;DHT22;3104;50.348;7.620;2022-09-03T09:40:42;17.20;99.90
6146;DHT22;3104;50.348;7.620;2022-09-03T09:43:14;17.40;99.90
6146;DHT22;3104;50.348;7.620;2022-09-03T09:45:46;17.70;99.90
6146;DHT22;3104;50.348;7.620;2022-09-03T09:48:24;17.70;99.90
6146;DHT22;3104;50.348;7.620;2022-09-03T09:53:36;17.90;99.90
6146;DHT22;3104;50.348;7.620;2022-09-03T09:56:02;18.00;99.90
6146;DHT22;3104;50.348;7.620;2022-09-03T09:58:29;18.20;99.90
6146;DHT22;3104;50.348;7.620;2022-09-03T10:01:17;18.50;99.90
6146;DHT22;3104;50.348;7.620;2022-09-03T10:03:55;18.80;99.90
6146;DHT22;3104;50.348;7.620;2022-09-03T10:06:29;19.10;99.90
6146;DHT22;3104;50.348;7.620;2022-09-03T10:09:19;19.30;99.90
6146;DHT22;3104;50.348;7.620;2022-09-03T10:12:03;19.20;99.90
6146;DHT22;3104;50.348;7.620;2022-09-03T10:14:41;19.00;99.90
6146;DHT22;3104;50.348;7.620;2022-09-03T10:17:28;18.90;99.90
6146;DHT22;3104;50.348;7.620;2022-09-03T10:20:14;19.10;99.90
6146;DHT22;3104;50.348;7.620;2022-09-03T10:22:55;18.90;99.90
6146;DHT22;3104;50.348;7.620;2022-09-03T10:25:24;19.00;99.90
6146;DHT22;3104;50.348;7.620;2022-09-03T10:27:51;19.00;99.90
6146;DHT22;3104;50.348;7.620;2022-09-03T10:30:19;19.00;99.90
6146;DHT22;3104;50.348;7.620;2022-09-03T10:33:00;19.00;99.90
6146;DHT22;3104;50.348;7.620;2022-09-03T10:35:31;19.10;99.90
6146;DHT22;3104;50.348;7.620;2022-09-03T10:51:26;18.90;99.90
6146;DHT22;3104;50.348;7.620;2022-09-03T10:57:10;19.60;99.90
6146;DHT22;3104;50.348;7.620;2022-09-03T11:08:46;20.90;99.90
6146;DHT22;3104;50.348;7.620;2022-09-03T11:11:18;21.20;99.90
6146;DHT22;3104;50.348;7.620;2022-09-03T11:13:50;21.30;99.90
6146;DHT22;3104;50.348;7.620;2022-09-03T11:16:25;21.30;99.90
6146;DHT22;3104;50.348;7.620;2022-09-03T11:19:08;21.20;99.90
6146;DHT22;3104;50.348;7.620;2022-09-03T11:21:38;21.20;99.90
6146;DHT22;3104;50.348;7.620;2022-09-03T11:24:20;21.60;99.90
6146;DHT22;3104;50.348;7.620;2022-09-03T11:26:54;22.30;99.90
6146;DHT22;3104;50.348;7.620;2022-09-03T11:29:38;22.60;99.90
6146;DHT22;3104;50.348;7.620;2022-09-03T11:32:20;22.10;99.90
6146;DHT22;3104;50.348;7.620;2022-09-03T11:34:52;22.10;99.90
6146;DHT22;3104;50.348;7.620;2022-09-03T11:39:58;22.90;99.90
6146;DHT22;3104;50.348;7.620;2022-09-03T11:42:31;22.60;99.90
6146;DHT22;3104;50.348;7.620;2022-09-03T11:47:51;22.60;99.90
6146;DHT22;3104;50.348;7.620;2022-09-03T11:50:30;23.30;99.90
6146;DHT22;3104;50.348;7.620;2022-09-03T11:56:08;24.00;99.90
6146;DHT22;3104;50.348;7.620;2022-09-03T11:58:38;23.80;99.90
6146;DHT22;3104;50.348;7.620;2022-09-03T12:01:10;24.40;99.90
6146;DHT22;3104;50.348;7.620;2022-09-03T12:03:44;24.30;99.90
6146;DHT22;3104;50.348;7.620;2022-09-03T12:11:53;24.00;99.90
6146;DHT22;3104;50.348;7.620;2022-09-03T12:19:53;23.80;99.90
6146;DHT22;3104;50.348;7.620;2022-09-03T12:22:21;24.00;99.90
6146;DHT22;3104;50.348;7.620;2022-09-03T12:24:47;24.50;99.90
6146;DHT22;3104;50.348;7.620;2022-09-03T12:27:21;25.20;99.90
6146;DHT22;3104;50.348;7.620;2022-09-03T12:30:00;25.40;99.90
6146;DHT22;3104;50.348;7.620;2022-09-03T12:32:29;25.10;99.90
6146;DHT22;3104;50.348;7.620;2022-09-03T12:34:57;25.00;99.90
6146;DHT22;3104;50.348;7.620;2022-09-03T12:37:25;25.00;99.90
6146;DHT22;3104;50.348;7.620;2022-09-03T12:39:54;25.40;99.90
6146;DHT22;3104;50.348;7.620;2022-09-03T12:42:26;25.60;99.90
6146;DHT22;3104;50.348;7.620;2022-09-03T12:44:53;25.50;99.90
6146;DHT22;3104;50.348;7.620;2022-09-03T12:47:22;25.20;99.90
6146;DHT22;3104;50.348;7.620;2022-09-03T12:49:50;24.80;99.90
6146;DHT22;3104;50.348;7.620;2022-09-03T12:52:26;24.70;99.90
6146;DHT22;3104;50.348;7.620;2022-09-03T12:58:16;25.60;99.90
6146;DHT22;3104;50.348;7.620;2022-09-03T13:00:51;25.80;99.90
6146;DHT22;3104;50.348;7.620;2022-09-03T13:06:00;26.30;99.90
6146;DHT22;3104;50.348;7.620;2022-09-03T13:08:30;26.70;99.90
6146;DHT22;3104;50.348;7.620;2022-09-03T13:10:58;27.20;99.90
6146;DHT22;3104;50.348;7.620;2022-09-03T13:13:33;27.70;99.90
6146;DHT22;3104;50.348;7.620;2022-09-03T13:16:23;27.80;99.90
6146;DHT22;3104;50.348;7.620;2022-09-03T13:27:41;26.20;99.90
6146;DHT22;3104;50.348;7.620;2022-09-03T13:30:16;26.20;99.90
6146;DHT22;3104;50.348;7.620;2022-09-03T13:33:04;26.70;99.90
6146;DHT22;3104;50.348;7.620;2022-09-03T13:35:50;27.20;99.90
6146;DHT22;3104;50.348;7.620;2022-09-03T13:40:48;27.70;99.90
6146;DHT22;3104;50.348;7.620;2022-09-03T13:43:42;28.10;99.90
6146;DHT22;3104;50.348;7.620;2022-09-03T13:46:22;28.40;99.70
6146;DHT22;3104;50.348;7.620;2022-09-03T13:48:50;27.80;99.90
6146;DHT22;3104;50.348;7.620;2022-09-03T13:54:18;27.50;99.90
6146;DHT22;3104;50.348;7.620;2022-09-03T14:07:27;26.80;99.90
6146;DHT22;3104;50.348;7.620;2022-09-03T14:15:31;26.60;99.90
6146;DHT22;3104;50.348;7.620;2022-09-03T14:19:01;26.80;99.90
6146;DHT22;3104;50.348;7.620;2022-09-03T14:21:15;26.50;99.90
6146;DHT22;3104;50.348;7.620;2022-09-03T14:26:30;27.20;99.90
6146;DHT22;3104;50.348;7.620;2022-09-03T14:29:05;26.80;99.90
6146;DHT22;3104;50.348;7.620;2022-09-03T14:31:50;26.20;99.90
6146;DHT22;3104;50.348;7.620;2022-09-03T14:40:02;25.40;99.90
6146;DHT22;3104;50.348;7.620;2022-09-03T14:51:33;25.20;99.90
6146;DHT22;3104;50.348;7.620;2022-09-03T15:08:39;24.60;99.90
6146;DHT22;3104;50.348;7.620;2022-09-03T15:10:59;24.40;99.90
6146;DHT22;3104;50.348;7.620;2022-09-03T15:13:29;24.30;99.90
6146;DHT22;3104;50.348;7.620;2022-09-03T15:16:27;24.20;99.90
6146;DHT22;3104;50.348;7.620;2022-09-03T15:35:26;23.30;99.90
6146;DHT22;3104;50.348;7.620;2022-09-03T15:38:00;23.10;99.90
6146;DHT22;3104;50.348;7.620;2022-09-03T15:43:28;22.70;99.90
6146;DHT22;3104;50.348;7.620;2022-09-03T15:45:58;22.20;99.90
6146;DHT22;3104;50.348;7.620;2022-09-03T15:51:25;21.30;99.90
6146;DHT22;3104;50.348;7.620;2022-09-03T15:54:21;21.30;99.90
6146;DHT22;3104;50.348;7.620;2022-09-03T15:56:51;21.20;99.90
6146;DHT22;3104;50.348;7.620;2022-09-03T16:07:22;20.90;99.90
6146;DHT22;3104;50.348;7.620;2022-09-03T16:10:08;20.50;99.90
6146;DHT22;3104;50.348;7.620;2022-09-03T16:15:21;20.30;99.90
6146;DHT22;3104;50.348;7.620;2022-09-03T16:17:56;20.10;99.90
6146;DHT22;3104;50.348;7.620;2022-09-03T16:23:23;20.10;99.90
6146;DHT22;3104;50.348;7.620;2022-09-03T16:25:56;20.10;99.90
6146;DHT22;3104;50.348;7.620;2022-09-03T16:28:49;20.30;99.90
6146;DHT22;3104;50.348;7.620;2022-09-03T16:57:01;19.00;99.90
6146;DHT22;3104;50.348;7.620;2022-09-03T17:10:43;19.20;99.90
6146;DHT22;3104;50.348;7.620;2022-09-03T17:13:22;19.20;99.90
6146;DHT22;3104;50.348;7.620;2022-09-03T17:15:53;19.30;99.90
6146;DHT22;3104;50.348;7.620;2022-09-03T17:24:01;19.60;99.90
6146;DHT22;3104;50.348;7.620;2022-09-03T17:26:44;19.60;99.90
6146;DHT22;3104;50.348;7.620;2022-09-03T17:31:53;19.40;99.90
6146;DHT22;3104;50.348;7.620;2022-09-03T17:42:47;19.60;99.90
6146;DHT22;3104;50.348;7.620;2022-09-03T17:45:40;19.60;99.90
6146;DHT22;3104;50.348;7.620;2022-09-03T17:53:48;19.60;99.90
6146;DHT22;3104;50.348;7.620;2022-09-03T17:56:24;19.50;99.90
6146;DHT22;3104;50.348;7.620;2022-09-03T17:59:01;19.50;99.90
6146;DHT22;3104;50.348;7.620;2022-09-03T18:01:34;19.50;99.90
6146;DHT22;3104;50.348;7.620;2022-09-03T18:04:17;19.30;99.90
6146;DHT22;3104;50.348;7.620;2022-09-03T18:07:29;19.20;99.90
6146;DHT22;3104;50.348;7.620;2022-09-03T18:10:16;19.10;99.90
6146;DHT22;3104;50.348;7.620;2022-09-03T18:12:48;19.30;99.90
6146;DHT22;3104;50.348;7.620;2022-09-03T18:15:30;19.10;99.90
6146;DHT22;3104;50.348;7.620;2022-09-03T18:18:06;19.00;99.90
6146;DHT22;3104;50.348;7.620;2022-09-03T18:20:42;18.90;99.90
6146;DHT22;3104;50.348;7.620;2022-09-03T18:23:45;18.90;99.90
6146;DHT22;3104;50.348;7.620;2022-09-03T18:26:32;18.90;99.90
6146;DHT22;3104;50.348;7.620;2022-09-03T18:29:38;18.80;99.90
6146;DHT22;3104;50.348;7.620;2022-09-03T18:32:25;18.90;99.90
6146;DHT22;3104;50.348;7.620;2022-09-03T18:35:10;18.90;99.90
6146;DHT22;3104;50.348;7.620;2022-09-03T18:37:54;18.90;99.90
6146;DHT22;3104;50.348;7.620;2022-09-03T18:41:05;18.80;99.90
6146;DHT22;3104;50.348;7.620;2022-09-03T18:44:08;18.80;99.90
6146;DHT22;3104;50.348;7.620;2022-09-03T18:46:55;18.70;99.90
6146;DHT22;3104;50.348;7.620;2022-09-03T18:50:07;18.70;99.90
6146;DHT22;3104;50.348;7.620;2022-09-03T18:53:00;18.80;99.90
6146;DHT22;3104;50.348;7.620;2022-09-03T18:55:49;18.90;99.90
6146;DHT22;3104;50.348;7.620;2022-09-03T19:01:45;18.60;99.90
6146;DHT22;3104;50.348;7.620;2022-09-03T19:10:37;18.40;99.90
6146;DHT22;3104;50.348;7.620;2022-09-03T19:13:34;18.30;99.90
6146;DHT22;3104;50.348;7.620;2022-09-03T19:22:12;18.30;99.90
6146;DHT22;3104;50.348;7.620;2022-09-03T19:25:13;18.30;99.90
6146;DHT22;3104;50.348;7.620;2022-09-03T19:28:18;18.30;99.90
6146;DHT22;3104;50.348;7.620;2022-09-03T19:34:35;18.20;99.90
6146;DHT22;3104;50.348;7.620;2022-09-03T19:37:39;18.10;99.90
6146;DHT22;3104;50.348;7.620;2022-09-03T19:43:42;18.10;99.90
6146;DHT22;3104;50.348;7.620;2022-09-03T19:46:39;17.90;99.90
6146;DHT22;3104;50.348;7.620;2022-09-03T19:50:19;17.80;99.90
6146;DHT22;3104;50.348;7.620;2022-09-03T19:52:50;17.70;99.90
6146;DHT22;3104;50.348;7.620;2022-09-03T19:55:39;17.80;99.90
6146;DHT22;3104;50.348;7.620;2022-09-03T19:58:28;17.80;99.90
6146;DHT22;3104;50.348;7.620;2022-09-03T20:01:13;17.70;99.90
6146;DHT22;3104;50.348;7.620;2022-09-03T20:03:59;17.70;99.90
6146;DHT22;3104;50.348;7.620;2022-09-03T20:06:47;17.80;99.90
6146;DHT22;3104;50.348;7.620;2022-09-03T20:09:38;17.70;99.90
6146;DHT22;3104;50.348;7.620;2022-09-03T20:12:29;17.70;99.90
6146;DHT22;3104;50.348;7.620;2022-09-03T20:14:57;17.70;99.90
6146;DHT22;3104;50.348;7.620;2022-09-03T20:18:03;17.70;99.90
6146;DHT22;3104;50.348;7.620;2022-09-03T20:23:11;17.50;99.90
6146;DHT22;3104;50.348;7.620;2022-09-03T20:49:52;17.30;99.90
6146;DHT22;3104;50.348;7.620;2022-09-03T20:52:32;17.30;99.90
6146;DHT22;3104;50.348;7.620;2022-09-03T20:55:10;17.30;99.90
6146;DHT22;3104;50.348;7.620;2022-09-03T20:57:48;17.30;99.90
6146;DHT22;3104;50.348;7.620;2022-09-03T21:00:17;17.30;99.90
6146;DHT22;3104;50.348;7.620;2022-09-03T21:05:23;17.40;99.90
6146;DHT22;3104;50.348;7.620;2022-09-03T21:10:31;17.20;99.90
6146;DHT22;3104;50.348;7.620;2022-09-03T21:13:23;17.20;99.90
6146;DHT22;3104;50.348;7.620;2022-09-03T21:24:10;17.30;99.90
6146;DHT22;3104;50.348;7.620;2022-09-03T21:26:39;17.40;99.90
6146;DHT22;3104;50.348;7.620;2022-09-03T21:29:29;17.50;99.90
6146;DHT22;3104;50.348;7.620;2022-09-03T21:32:16;17.50;99.90
6146;DHT22;3104;50.348;7.620;2022-09-03T21:34:54;17.70;99.90
6146;DHT22;3104;50.348;7.620;2022-09-03T21:37:23;17.90;99.90
6146;DHT22;3104;50.348;7.620;2022-09-03T21:39:56;17.70;99.90
6146;DHT22;3104;50.348;7.620;2022-09-03T21:42:42;17.80;99.90
6146;DHT22;3104;50.348;7.620;2022-09-03T21:48:05;17.70;99.90
6146;DHT22;3104;50.348;7.620;2022-09-03T21:50:44;17.70;99.90
6146;DHT22;3104;50.348;7.620;2022-09-03T21:56:07;17.60;99.90
6146;DHT22;3104;50.348;7.620;2022-09-03T22:01:13;17.50;99.90
6146;DHT22;3104;50.348;7.620;2022-09-03T22:03:41;17.40;99.90
6146;DHT22;3104;50.348;7.620;2022-09-03T22:06:18;17.40;99.90
6146;DHT22;3104;50.348;7.620;2022-09-03T22:08:56;17.40;99.90
6146;DHT22;3104;50.348;7.620;2022-09-03T22:11:43;17.50;99.90
6146;DHT22;3104;50.348;7.620;2022-09-03T22:14:15;17.70;99.90
6146;DHT22;3104;50.348;7.620;2022-09-03T22:16:55;17.60;99.90
6146;DHT22;3104;50.348;7.620;2022-09-03T22:19:22;17.30;99.90
6146;DHT22;3104;50.348;7.620;2022-09-03T22:21:57;17.30;99.90
6146;DHT22;3104;50.348;7.620;2022-09-03T22:30:01;17.20;99.90
6146;DHT22;3104;50.348;7.620;2022-09-03T22:43:40;17.00;99.90
6146;DHT22;3104;50.348;7.620;2022-09-03T22:46:18;17.00;99.90
6146;DHT22;3104;50.348;7.620;2022-09-03T22:49:05;16.80;99.90
6146;DHT22;3104;50.348;7.620;2022-09-03T22:57:06;16.70;99.90
6146;DHT22;3104;50.348;7.620;2022-09-03T22:59:36;16.60;99.90
6146;DHT22;3104;50.348;7.620;2022-09-03T23:02:21;16.60;99.90